Time;durP1;ratioP1;P1;durP2;ratioP2;P2;SDS_P1;SDS_P2;PMS_P1;PMS_P2;Temp;Humidity;BMP_temperature;BMP_pressure;BME280_temperature;BME280_humidity;BME280_pressure;Samples;Min_cycle;Max_cycle;Signal;HPM_P1;HPM_P2
2023/05/18 00:02:03;;;;;;;;;;;;;;;;;;5036785;28;20237;-23
2023/05/18 00:04:29;;;;;;;;;;;;;;;;;;5036492;28;19972;-21
2023/05/18 00:07:02;;;;;;;;;;;;;;;;;;5036482;28;19913;-21
2023/05/18 00:09:28;;;;;;;;;;;;;;;;;;5036435;28;19909;-21
2023/05/18 00:11:54;;;;;;;;;;;;;;;;;;5036371;28;19917;-20
2023/05/18 00:14:20;;;;;;;;;;;;;;;;;;5036373;28;19936;-21
2023/05/18 00:16:46;;;;;;;;;;;;;;;;;;5036379;28;19920;-22
2023/05/18 00:19:14;;;;;;;;;;;;;;;;;;5036547;28;19909;-21
2023/05/18 00:21:41;;;;;;;;;;;;;;;;;;5036272;28;19917;-20
2023/05/18 00:24:09;;;;;;;;;;;;;;;;;;5036168;28;20036;-22
2023/05/18 00:26:35;;;;;;;;;;;;;;;;;;5036169;28;20019;-20
2023/05/18 00:29:01;;;;;;;;;;;;;;;;;;5036349;28;19952;-23
2023/05/18 00:31:27;;;;;;;;;;;;;;;;;;5036067;28;19909;-20
2023/05/18 00:33:53;;;;;;;;;;;;;;;;;;5035873;28;19909;-23
2023/05/18 00:36:19;;;;;;;;;;;;;;;;;;5035849;28;20009;-22
2023/05/18 00:38:45;;;;;;;;;;;;;;;;;;5035943;28;19948;-22
2023/05/18 00:41:11;;;;;;;;;;;;;;;;;;5036033;28;19913;-21
2023/05/18 00:43:37;;;;;;;;;;;;;;;;;;5036017;28;19967;-20
2023/05/18 00:46:03;;;;;;;;;;;;;;;;;;5035373;28;20368;-21
2023/05/18 00:48:29;;;;;;;;;;;;;;;;;;5035699;28;19909;-22
2023/05/18 00:50:55;;;;;;;;;;;;;;;;;;5035859;28;19970;-22
2023/05/18 00:53:21;;;;;;;;;;;;;;;;;;5035648;28;19992;-21
2023/05/18 00:55:47;;;;;;;;;;;;;;;;;;5035492;28;19913;-21
2023/05/18 00:58:13;;;;;;;;;;;;;;;;;;5034628;28;19920;-22
2023/05/18 01:00:39;;;;;;;;;;;;;;;;;;5035715;28;19920;-20
2023/05/18 01:03:08;;;;;;;;;;;;;;;;;;5035376;28;20036;-20
2023/05/18 01:05:34;;;;;;;;;;;;;;;;;;5034286;28;19929;-23
2023/05/18 01:08:01;;;;;;;;;;;;;;;;;;5035388;28;20008;-22
2023/05/18 01:10:27;;;;;;;;;;;;;;;;;;5035599;28;19910;-21
2023/05/18 01:12:55;;;;;;;;;;;;;;;;;;5034368;28;20261;-22
2023/05/18 01:15:21;;;;;;;;;;;;;;;;;;5035153;28;19968;-22
2023/05/18 01:17:48;;;;;;;;;;;;;;;;;;5035107;28;20241;-20
2023/05/18 01:20:14;;;;;;;;;;;;;;;;;;5035421;28;20012;-22
2023/05/18 01:22:40;;;;;;;;;;;;;;;;;;5035000;28;20347;-32
2023/05/18 01:25:06;;;;;;;;;;;;;;;;;;5035078;28;20343;-20
2023/05/18 01:27:36;;;;;;;;;;;;;;;;;;5035236;28;19909;-22
2023/05/18 01:30:02;;;;;;;;;;;;;;;;;;5035263;28;20304;-22
2023/05/18 01:32:28;;;;;;;;;;;;;;;;;;5034883;28;19953;-21
2023/05/18 01:34:54;;;;;;;;;;;;;;;;;;5035052;28;19925;-21
2023/05/18 01:37:20;;;;;;;;;;;;;;;;;;5035095;28;19917;-21
2023/05/18 01:39:46;;;;;;;;;;;;;;;;;;5034737;28;19914;-21
2023/05/18 01:42:13;;;;;;;;;;;;;;;;;;5035017;28;20014;-22
2023/05/18 01:44:39;;;;;;;;;;;;;;;;;;5035003;28;19909;-24
2023/05/18 01:47:05;;;;;;;;;;;;;;;;;;5034744;28;19909;-22
2023/05/18 01:49:31;;;;;;;;;;;;;;;;;;5034597;28;19928;-22
2023/05/18 01:51:57;;;;;;;;;;;;;;;;;;5034643;28;19910;-20
2023/05/18 01:54:22;;;;;;;;;;;;;;;;;;5034559;28;19917;-21
2023/05/18 01:56:48;;;;;;;;;;;;;;;;;;5034817;28;19913;-20
2023/05/18 01:59:14;;;;;;;;;;;;;;;;;;5034507;28;19941;-20
2023/05/18 02:01:40;;;;;;;;;;;;;;;;;;5034529;28;19917;-23
2023/05/18 02:04:06;;;;;;;;;;;;;;;;;;5034217;28;19921;-21
2023/05/18 02:06:32;;;;;;;;;;;;;;;;;;5034753;28;20324;-22
2023/05/18 02:08:58;;;;;;;;;;;;;;;;;;5034475;28;20332;-22
2023/05/18 02:11:25;;;;;;;;;;;;;;;;;;5034459;28;19913;-20
2023/05/18 02:13:51;;;;;;;;;;;;;;;;;;5034644;28;19909;-20
2023/05/18 02:16:18;;;;;;;;;;;;;;;;;;5034577;28;20055;-20
2023/05/18 02:18:44;;;;;;;;;;;;;;;;;;5034676;28;20066;-21
2023/05/18 02:21:12;;;;;;;;;;;;;;;;;;5034334;28;20040;-20
2023/05/18 02:23:38;;;;;;;;;;;;;;;;;;5034213;28;19986;-20
2023/05/18 02:26:04;;;;;;;;;;;;;;;;;;5033211;28;19964;-21
2023/05/18 02:28:30;;;;;;;;;;;;;;;;;;5034240;28;19909;-22
2023/05/18 02:30:56;;;;;;;;;;;;;;;;;;5034280;28;19913;-21
2023/05/18 02:33:25;;;;;;;;;;;;;;;;;;5033156;28;19909;-22
2023/05/18 02:35:51;;;;;;;;;;;;;;;;;;5034200;28;19913;-23
2023/05/18 02:38:17;;;;;;;;;;;;;;;;;;5034430;28;19939;-22
2023/05/18 02:40:43;;;;;;;;;;;;;;;;;;5034190;28;19909;-22
2023/05/18 02:43:09;;;;;;;;;;;;;;;;;;5034064;28;19952;-20
2023/05/18 02:45:35;;;;;;;;;;;;;;;;;;5033027;28;19953;-21
2023/05/18 02:48:00;;;;;;;;;;;;;;;;;;5034085;28;19936;-20
2023/05/18 02:50:26;;;;;;;;;;;;;;;;;;5034056;28;19944;-20
2023/05/18 02:52:52;;;;;;;;;;;;;;;;;;5034257;28;19910;-23
2023/05/18 02:55:18;;;;;;;;;;;;;;;;;;5033978;28;20005;-22
2023/05/18 02:57:45;;;;;;;;;;;;;;;;;;5034071;28;19910;-21
2023/05/18 03:00:11;;;;;;;;;;;;;;;;;;5034075;28;19914;-22
2023/05/18 03:02:37;;;;;;;;;;;;;;;;;;5033899;28;19972;-22
2023/05/18 03:05:04;;;;;;;;;;;;;;;;;;5033949;28;20261;-22
2023/05/18 03:07:31;;;;;;;;;;;;;;;;;;5033967;28;19909;-21
2023/05/18 03:09:57;;;;;;;;;;;;;;;;;;5036463;28;19952;-21
2023/05/18 03:12:23;;;;;;;;;;;;;;;;;;5037503;28;19995;-22
2023/05/18 03:14:49;;;;;;;;;;;;;;;;;;5037397;28;20252;-21
2023/05/18 03:17:15;;;;;;;;;;;;;;;;;;5037370;28;19940;-20
2023/05/18 03:19:41;;;;;;;;;;;;;;;;;;5038011;28;19916;-21
2023/05/18 03:22:07;;;;;;;;;;;;;;;;;;5037313;28;20020;-21
2023/05/18 03:24:39;;;;;;;;;;;;;;;;;;5037558;28;19956;-21
2023/05/18 03:27:05;;;;;;;;;;;;;;;;;;5037620;28;20351;-21
2023/05/18 03:29:31;;;;;;;;;;;;;;;;;;5037203;28;19909;-22
2023/05/18 03:31:57;;;;;;;;;;;;;;;;;;5037175;28;19919;-23
2023/05/18 03:34:23;;;;;;;;;;;;;;;;;;5037093;28;20336;-20
2023/05/18 03:36:50;;;;;;;;;;;;;;;;;;5037298;28;19959;-20
2023/05/18 03:39:16;;;;;;;;;;;;;;;;;;5036079;28;19924;-20
2023/05/18 03:41:42;;;;;;;;;;;;;;;;;;5037048;28;19909;-21
2023/05/18 03:44:08;;;;;;;;;;;;;;;;;;5036895;28;20012;-22
2023/05/18 03:46:34;;;;;;;;;;;;;;;;;;5037164;28;19917;-21
2023/05/18 03:49:00;;;;;;;;;;;;;;;;;;5036922;28;19921;-21
2023/05/18 03:51:27;;;;;;;;;;;;;;;;;;5036788;28;19928;-22
2023/05/18 03:53:53;;;;;;;;;;;;;;;;;;5036633;28;19909;-22
2023/05/18 03:56:19;;;;;;;;;;;;;;;;;;5036675;28;20066;-20
2023/05/18 03:58:45;;;;;;;;;;;;;;;;;;5036892;28;19913;-21
2023/05/18 04:03:49;;;;;;;;;;;;;;;;;;5190167;22;19925;-16
2023/05/18 04:06:15;;;;;;;;;;;;;;;;;;5036808;28;20287;-15
2023/05/18 04:08:42;;;;;;;;;;;;;;;;;;5036868;28;20363;-15
2023/05/18 04:11:08;;;;;;;;;;;;;;;;;;5036828;28;19920;-16
2023/05/18 04:13:34;;;;;;;;;;;;;;;;;;5036683;28;19948;-16
2023/05/18 04:16:02;;;;;;;;;;;;;;;;;;5036575;28;20364;-17
2023/05/18 04:18:29;;;;;;;;;;;;;;;;;;5036906;28;20070;-16
2023/05/18 04:20:55;;;;;;;;;;;;;;;;;;5035629;28;19928;-15
2023/05/18 04:23:21;;;;;;;;;;;;;;;;;;5036650;28;19909;-17
2023/05/18 04:25:48;;;;;;;;;;;;;;;;;;5035526;28;19909;-17
2023/05/18 04:28:15;;;;;;;;;;;;;;;;;;5037017;28;19967;-17
2023/05/18 04:30:40;;;;;;;;;;;;;;;;;;5036437;28;19917;-17
2023/05/18 04:33:07;;;;;;;;;;;;;;;;;;5036239;28;20347;-16
2023/05/18 04:35:33;;;;;;;;;;;;;;;;;;5036738;28;19913;-17
2023/05/18 04:37:59;;;;;;;;;;;;;;;;;;5036453;28;19909;-17
2023/05/18 04:40:25;;;;;;;;;;;;;;;;;;5036227;28;20032;-16
2023/05/18 04:42:51;;;;;;;;;;;;;;;;;;5036034;28;19939;-16
2023/05/18 04:45:18;;;;;;;;;;;;;;;;;;5036034;28;19917;-17
2023/05/18 04:47:45;;;;;;;;;;;;;;;;;;5036047;28;19921;-18
2023/05/18 04:50:11;;;;;;;;;;;;;;;;;;5036554;28;19909;-15
2023/05/18 04:52:37;;;;;;;;;;;;;;;;;;5035912;28;19935;-16
2023/05/18 04:55:03;;;;;;;;;;;;;;;;;;5035813;28;19913;-15
2023/05/18 04:57:28;;;;;;;;;;;;;;;;;;5036120;28;19937;-17
2023/05/18 04:59:54;;;;;;;;;;;;;;;;;;5035788;28;19999;-17
2023/05/18 05:02:20;;;;;;;;;;;;;;;;;;5035433;28;19909;-15
2023/05/18 05:04:46;;;;;;;;;;;;;;;;;;5035752;28;20091;-16
2023/05/18 05:07:12;;;;;;;;;;;;;;;;;;5034673;28;19909;-16
2023/05/18 05:09:38;;;;;;;;;;;;;;;;;;5035556;28;19936;-16
2023/05/18 05:12:04;;;;;;;;;;;;;;;;;;5035508;28;19917;-16
2023/05/18 05:14:30;;;;;;;;;;;;;;;;;;5035388;28;19913;-17
2023/05/18 05:16:56;;;;;;;;;;;;;;;;;;5035528;28;19913;-16
2023/05/18 05:19:22;;;;;;;;;;;;;;;;;;5035461;28;19909;-25
2023/05/18 05:21:48;;;;;;;;;;;;;;;;;;5035323;28;19916;-16
2023/05/18 05:24:14;;;;;;;;;;;;;;;;;;5035600;28;19909;-17
2023/05/18 05:26:40;;;;;;;;;;;;;;;;;;5034354;28;20270;-18
2023/05/18 05:29:06;;;;;;;;;;;;;;;;;;5035226;28;20007;-16
2023/05/18 05:31:33;;;;;;;;;;;;;;;;;;5035192;28;19921;-16
2023/05/18 05:33:59;;;;;;;;;;;;;;;;;;5035193;28;20323;-16
2023/05/18 05:36:25;;;;;;;;;;;;;;;;;;5035142;28;19957;-16
2023/05/18 05:38:51;;;;;;;;;;;;;;;;;;5035163;28;19980;-15
2023/05/18 05:41:17;;;;;;;;;;;;;;;;;;5035367;28;19921;-17
2023/05/18 05:43:43;;;;;;;;;;;;;;;;;;5035009;28;19910;-17
2023/05/18 05:46:09;;;;;;;;;;;;;;;;;;5034965;28;19909;-17
2023/05/18 05:48:34;;;;;;;;;;;;;;;;;;5034947;28;19909;-17
2023/05/18 05:51:00;;;;;;;;;;;;;;;;;;5035155;28;19909;-16
2023/05/18 05:53:28;;;;;;;;;;;;;;;;;;5034857;28;19913;-15
2023/05/18 05:55:54;;;;;;;;;;;;;;;;;;5035115;28;19923;-16
2023/05/18 05:58:20;;;;;;;;;;;;;;;;;;5034891;28;19909;-16
2023/05/18 06:00:46;;;;;;;;;;;;;;;;;;5034804;28;20043;-17
2023/05/18 06:03:12;;;;;;;;;;;;;;;;;;5034451;28;19984;-16
2023/05/18 06:05:38;;;;;;;;;;;;;;;;;;5034765;28;19909;-17
2023/05/18 06:08:04;;;;;;;;;;;;;;;;;;5035017;28;19914;-16
2023/05/18 06:10:30;;;;;;;;;;;;;;;;;;5034786;28;19975;-17
2023/05/18 06:12:56;;;;;;;;;;;;;;;;;;5035120;28;19921;-17
2023/05/18 06:15:22;;;;;;;;;;;;;;;;;;5034665;28;19913;-16
2023/05/18 06:17:48;;;;;;;;;;;;;;;;;;5034759;28;20027;-17
2023/05/18 06:20:14;;;;;;;;;;;;;;;;;;5034948;28;19983;-15
2023/05/18 06:22:40;;;;;;;;;;;;;;;;;;5034819;28;20351;-15
2023/05/18 06:25:07;;;;;;;;;;;;;;;;;;5034824;28;19932;-17
2023/05/18 06:27:33;;;;;;;;;;;;;;;;;;5034874;28;20273;-18
2023/05/18 06:29:59;;;;;;;;;;;;;;;;;;5034642;28;19957;-17
2023/05/18 06:32:25;;;;;;;;;;;;;;;;;;5034997;28;19909;-16
2023/05/18 06:34:51;;;;;;;;;;;;;;;;;;5034661;28;19979;-15
2023/05/18 06:37:18;;;;;;;;;;;;;;;;;;5034534;28;19916;-17
2023/05/18 06:39:44;;;;;;;;;;;;;;;;;;5034760;28;20251;-17
2023/05/18 06:42:10;;;;;;;;;;;;;;;;;;5034386;28;19967;-16
2023/05/18 06:44:36;;;;;;;;;;;;;;;;;;5036484;28;19909;-16
2023/05/18 06:47:02;;;;;;;;;;;;;;;;;;5038310;28;19908;-17
2023/05/18 06:49:28;;;;;;;;;;;;;;;;;;5037256;28;19917;-16
2023/05/18 06:51:54;;;;;;;;;;;;;;;;;;5037113;28;19937;-17
2023/05/18 06:54:21;;;;;;;;;;;;;;;;;;5038152;28;19909;-17
2023/05/18 06:56:47;;;;;;;;;;;;;;;;;;5037248;28;19960;-16
2023/05/18 06:59:13;;;;;;;;;;;;;;;;;;5038049;28;20332;-14
2023/05/18 07:01:39;;;;;;;;;;;;;;;;;;5038077;28;19944;-15
2023/05/18 07:04:05;;;;;;;;;;;;;;;;;;5037829;28;20004;-16
2023/05/18 07:06:31;;;;;;;;;;;;;;;;;;5038005;28;19967;-14
2023/05/18 07:08:56;;;;;;;;;;;;;;;;;;5037876;28;19909;-15
2023/05/18 07:11:22;;;;;;;;;;;;;;;;;;5037864;28;19909;-15
2023/05/18 07:13:48;;;;;;;;;;;;;;;;;;5037721;28;19914;-16
2023/05/18 07:16:14;;;;;;;;;;;;;;;;;;5037720;28;19913;-17
2023/05/18 07:18:41;;;;;;;;;;;;;;;;;;5037785;28;19909;-17
2023/05/18 07:21:07;;;;;;;;;;;;;;;;;;5037749;28;19909;-14
2023/05/18 07:23:33;;;;;;;;;;;;;;;;;;5037583;28;19941;-15
2023/05/18 07:25:59;;;;;;;;;;;;;;;;;;5036583;28;19967;-14
2023/05/18 07:28:25;;;;;;;;;;;;;;;;;;5037612;28;19973;-16
2023/05/18 07:30:51;;;;;;;;;;;;;;;;;;5037474;28;20004;-15
2023/05/18 07:33:17;;;;;;;;;;;;;;;;;;5037425;28;19909;-16
2023/05/18 07:35:43;;;;;;;;;;;;;;;;;;5037690;28;20364;-16
2023/05/18 07:38:08;;;;;;;;;;;;;;;;;;5037320;28;19909;-15
2023/05/18 07:40:34;;;;;;;;;;;;;;;;;;5037348;28;19971;-16
2023/05/18 07:43:00;;;;;;;;;;;;;;;;;;5037299;28;19909;-16
2023/05/18 07:45:26;;;;;;;;;;;;;;;;;;5037244;28;20186;-14
2023/05/18 07:47:52;;;;;;;;;;;;;;;;;;5037254;28;19999;-15
2023/05/18 07:50:18;;;;;;;;;;;;;;;;;;5037682;28;20402;-16
2023/05/18 07:52:45;;;;;;;;;;;;;;;;;;5037191;28;19916;-14
2023/05/18 07:55:11;;;;;;;;;;;;;;;;;;5036991;28;20255;-15
2023/05/18 07:57:37;;;;;;;;;;;;;;;;;;5037607;28;19925;-16
2023/05/18 08:00:07;;;;;;;;;;;;;;;;;;5037000;28;19974;-16
2023/05/18 08:02:33;;;;;;;;;;;;;;;;;;5036687;28;19917;-16
2023/05/18 08:05:00;;;;;;;;;;;;;;;;;;5037101;28;19919;-14
2023/05/18 08:07:28;;;;;;;;;;;;;;;;;;5036871;28;19913;-15
2023/05/18 08:09:54;;;;;;;;;;;;;;;;;;5036811;28;20001;-16
2023/05/18 08:12:20;;;;;;;;;;;;;;;;;;5036680;28;19967;-15
2023/05/18 08:14:46;;;;;;;;;;;;;;;;;;5036860;28;19925;-15
2023/05/18 08:17:12;;;;;;;;;;;;;;;;;;5036917;28;20335;-15
2023/05/18 08:19:38;;;;;;;;;;;;;;;;;;5036627;28;20305;-15
2023/05/18 08:22:04;;;;;;;;;;;;;;;;;;5036508;28;19914;-15
2023/05/18 08:24:30;;;;;;;;;;;;;;;;;;5036738;28;19916;-16
2023/05/18 08:26:56;;;;;;;;;;;;;;;;;;5036777;28;20334;-16
2023/05/18 08:29:22;;;;;;;;;;;;;;;;;;5036457;28;19909;-16
2023/05/18 08:31:48;;;;;;;;;;;;;;;;;;5036243;28;19948;-15
2023/05/18 08:34:14;;;;;;;;;;;;;;;;;;5036295;28;19936;-14
2023/05/18 08:36:43;;;;;;;;;;;;;;;;;;5036288;28;19909;-14
2023/05/18 08:39:09;;;;;;;;;;;;;;;;;;5036525;28;19955;-15
2023/05/18 08:41:35;;;;;;;;;;;;;;;;;;5036278;28;19982;-14
2023/05/18 08:44:02;;;;;;;;;;;;;;;;;;5035015;28;20402;-15
2023/05/18 08:46:28;;;;;;;;;;;;;;;;;;5036171;28;19909;-15
2023/05/18 08:48:54;;;;;;;;;;;;;;;;;;5036358;28;19917;-15
2023/05/18 08:51:20;;;;;;;;;;;;;;;;;;5036214;28;19909;-14
2023/05/18 08:53:46;;;;;;;;;;;;;;;;;;5035891;28;19909;-15
2023/05/18 08:56:12;;;;;;;;;;;;;;;;;;5035836;28;19924;-15
2023/05/18 08:58:38;;;;;;;;;;;;;;;;;;5035875;28;19919;-15
2023/05/18 09:01:04;;;;;;;;;;;;;;;;;;5036061;28;20011;-15
2023/05/18 09:03:30;;;;;;;;;;;;;;;;;;5035529;28;19921;-16
2023/05/18 09:05:56;;;;;;;;;;;;;;;;;;5035707;28;19996;-15
2023/05/18 09:08:22;;;;;;;;;;;;;;;;;;5035168;28;20010;-16
2023/05/18 09:10:48;;;;;;;;;;;;;;;;;;5036100;28;20028;-15
2023/05/18 09:13:14;;;;;;;;;;;;;;;;;;5035515;28;19920;-15
2023/05/18 09:15:40;;;;;;;;;;;;;;;;;;5034454;28;19913;-15
2023/05/18 09:18:06;;;;;;;;;;;;;;;;;;5035744;28;19928;-16
2023/05/18 09:20:32;;;;;;;;;;;;;;;;;;5035711;28;19910;-14
2023/05/18 09:22:58;;;;;;;;;;;;;;;;;;5035452;28;20443;-15
2023/05/18 09:25:24;;;;;;;;;;;;;;;;;;5035681;28;19940;-15
2023/05/18 09:27:52;;;;;;;;;;;;;;;;;;5035712;28;19913;-16
2023/05/18 09:30:18;;;;;;;;;;;;;;;;;;5035366;28;20007;-16
2023/05/18 09:32:43;;;;;;;;;;;;;;;;;;5035447;28;19957;-15
2023/05/18 09:35:09;;;;;;;;;;;;;;;;;;5035385;28;20358;-14
2023/05/18 09:37:35;;;;;;;;;;;;;;;;;;5035441;28;20369;-13
2023/05/18 09:40:03;;;;;;;;;;;;;;;;;;5035193;28;19909;-13
2023/05/18 09:42:29;;;;;;;;;;;;;;;;;;5035099;28;19909;-13
2023/05/18 09:44:55;;;;;;;;;;;;;;;;;;5035550;28;19916;-14
2023/05/18 09:47:21;;;;;;;;;;;;;;;;;;5033980;28;19909;-14
2023/05/18 09:49:47;;;;;;;;;;;;;;;;;;5035475;28;19994;-14
2023/05/18 09:52:14;;;;;;;;;;;;;;;;;;5034977;28;19910;-12
2023/05/18 09:54:39;;;;;;;;;;;;;;;;;;5034872;28;19932;-14
2023/05/18 09:57:05;;;;;;;;;;;;;;;;;;5035101;28;19909;-15
2023/05/18 09:59:33;;;;;;;;;;;;;;;;;;5033880;28;20002;-14
2023/05/18 10:02:04;;;;;;;;;;;;;;;;;;5035011;28;19917;-13
2023/05/18 10:04:30;;;;;;;;;;;;;;;;;;5034874;28;20349;-13
2023/05/18 10:06:56;;;;;;;;;;;;;;;;;;5034728;28;19909;-14
2023/05/18 10:09:22;;;;;;;;;;;;;;;;;;5035117;28;19909;-14
2023/05/18 10:11:48;;;;;;;;;;;;;;;;;;5034689;28;19909;-14
2023/05/18 10:14:14;;;;;;;;;;;;;;;;;;5034745;28;19970;-15
2023/05/18 10:16:40;;;;;;;;;;;;;;;;;;5034640;28;19929;-15
2023/05/18 10:19:06;;;;;;;;;;;;;;;;;;5036040;28;20012;-14
2023/05/18 10:21:32;;;;;;;;;;;;;;;;;;5039067;28;19909;-13
2023/05/18 10:23:58;;;;;;;;;;;;;;;;;;5038648;28;19913;-15
2023/05/18 10:26:24;;;;;;;;;;;;;;;;;;5037765;28;19913;-14
2023/05/18 10:28:50;;;;;;;;;;;;;;;;;;5038705;28;20000;-15
2023/05/18 10:31:16;;;;;;;;;;;;;;;;;;5037642;28;19948;-14
2023/05/18 10:33:42;;;;;;;;;;;;;;;;;;5038534;28;19992;-14
2023/05/18 10:36:08;;;;;;;;;;;;;;;;;;5038674;28;19943;-14
2023/05/18 10:38:34;;;;;;;;;;;;;;;;;;5038467;28;19920;-13
2023/05/18 10:41:00;;;;;;;;;;;;;;;;;;5038680;28;19955;-13
2023/05/18 10:43:26;;;;;;;;;;;;;;;;;;5038349;28;19948;-14
2023/05/18 10:45:52;;;;;;;;;;;;;;;;;;5038385;28;19920;-14
2023/05/18 10:48:18;;;;;;;;;;;;;;;;;;5038307;28;20252;-14
2023/05/18 10:50:44;;;;;;;;;;;;;;;;;;5038574;28;19923;-14
2023/05/18 10:53:10;;;;;;;;;;;;;;;;;;5038478;28;19909;-14
2023/05/18 10:55:36;;;;;;;;;;;;;;;;;;5038373;28;19913;-14
2023/05/18 10:58:02;;;;;;;;;;;;;;;;;;5038123;28;20336;-13
2023/05/18 11:00:28;;;;;;;;;;;;;;;;;;5038023;28;20014;-12
2023/05/18 11:02:55;;;;;;;;;;;;;;;;;;5037732;28;19925;-13
2023/05/18 11:05:21;;;;;;;;;;;;;;;;;;5038000;28;19909;-13
2023/05/18 11:07:47;;;;;;;;;;;;;;;;;;5037922;28;19921;-14
2023/05/18 11:10:12;;;;;;;;;;;;;;;;;;5036950;28;19919;-14
2023/05/18 11:12:38;;;;;;;;;;;;;;;;;;5038370;28;19913;-13
2023/05/18 11:15:04;;;;;;;;;;;;;;;;;;5037766;28;19913;-13
2023/05/18 11:17:30;;;;;;;;;;;;;;;;;;5037745;28;20302;-14
2023/05/18 11:19:56;;;;;;;;;;;;;;;;;;5037666;28;19920;-13
2023/05/18 11:22:22;;;;;;;;;;;;;;;;;;5038007;28;19909;-14
2023/05/18 11:24:49;;;;;;;;;;;;;;;;;;5037603;28;19960;-15
2023/05/18 11:27:15;;;;;;;;;;;;;;;;;;5037672;28;19996;-14
2023/05/18 11:29:41;;;;;;;;;;;;;;;;;;5037603;28;19964;-13
2023/05/18 11:32:07;;;;;;;;;;;;;;;;;;5037954;28;19913;-13
2023/05/18 11:34:32;;;;;;;;;;;;;;;;;;5037435;28;20228;-14
2023/05/18 11:36:59;;;;;;;;;;;;;;;;;;5037441;28;19910;-13
2023/05/18 11:39:26;;;;;;;;;;;;;;;;;;5037389;28;19972;-14
2023/05/18 11:41:52;;;;;;;;;;;;;;;;;;5037325;28;20302;-13
2023/05/18 11:44:18;;;;;;;;;;;;;;;;;;5037800;28;19928;-14
2023/05/18 11:46:44;;;;;;;;;;;;;;;;;;5037245;28;20352;-13
2023/05/18 11:49:09;;;;;;;;;;;;;;;;;;5037265;28;19991;-13
2023/05/18 11:51:35;;;;;;;;;;;;;;;;;;5037169;28;19913;-14
2023/05/18 11:54:01;;;;;;;;;;;;;;;;;;5036986;28;19920;-14
2023/05/18 11:56:27;;;;;;;;;;;;;;;;;;5037317;28;19913;-14
2023/05/18 11:58:53;;;;;;;;;;;;;;;;;;5037061;28;20310;-14
2023/05/18 12:01:19;;;;;;;;;;;;;;;;;;5036990;28;19909;-14
2023/05/18 12:03:45;;;;;;;;;;;;;;;;;;5036726;28;20016;-13
2023/05/18 12:06:11;;;;;;;;;;;;;;;;;;5035898;28;20225;-14
2023/05/18 12:08:42;;;;;;;;;;;;;;;;;;5036906;28;19909;-15
2023/05/18 12:11:08;;;;;;;;;;;;;;;;;;5035805;28;20328;-14
2023/05/18 12:13:34;;;;;;;;;;;;;;;;;;5036655;28;19920;-14
2023/05/18 12:16:00;;;;;;;;;;;;;;;;;;5036596;28;19913;-20
2023/05/18 12:18:26;;;;;;;;;;;;;;;;;;5035646;28;19909;-13
2023/05/18 12:20:52;;;;;;;;;;;;;;;;;;5036663;28;19920;-14
2023/05/18 12:23:18;;;;;;;;;;;;;;;;;;5036731;28;19909;-13
2023/05/18 12:25:44;;;;;;;;;;;;;;;;;;5036573;28;19913;-14
2023/05/18 12:28:10;;;;;;;;;;;;;;;;;;5036522;28;19909;-14
2023/05/18 12:30:38;;;;;;;;;;;;;;;;;;5036664;28;20283;-14
2023/05/18 12:33:05;;;;;;;;;;;;;;;;;;5036814;28;19913;-13
2023/05/18 12:35:31;;;;;;;;;;;;;;;;;;5036352;28;19951;-13
2023/05/18 12:37:59;;;;;;;;;;;;;;;;;;5036196;28;19909;-14
2023/05/18 12:40:25;;;;;;;;;;;;;;;;;;5036267;28;20252;-13
2023/05/18 12:42:52;;;;;;;;;;;;;;;;;;5035278;28;19909;-14
2023/05/18 12:45:18;;;;;;;;;;;;;;;;;;5036667;28;20047;-14
2023/05/18 12:47:44;;;;;;;;;;;;;;;;;;5036130;28;19979;-13
2023/05/18 12:50:10;;;;;;;;;;;;;;;;;;5035997;28;19910;-14
2023/05/18 12:52:36;;;;;;;;;;;;;;;;;;5035950;28;19913;-14
2023/05/18 12:55:03;;;;;;;;;;;;;;;;;;5034890;28;19999;-14
2023/05/18 12:57:32;;;;;;;;;;;;;;;;;;5035966;28;19909;-13
2023/05/18 12:59:58;;;;;;;;;;;;;;;;;;5036108;28;19909;-14
2023/05/18 13:02:24;;;;;;;;;;;;;;;;;;5035720;28;19925;-13
2023/05/18 13:04:50;;;;;;;;;;;;;;;;;;5036073;28;19909;-14
2023/05/18 13:07:16;;;;;;;;;;;;;;;;;;5035714;28;20005;-14
2023/05/18 13:09:42;;;;;;;;;;;;;;;;;;5035686;28;19996;-14
2023/05/18 13:12:08;;;;;;;;;;;;;;;;;;5035504;28;19916;-14
2023/05/18 13:14:34;;;;;;;;;;;;;;;;;;5035790;28;19917;-14
2023/05/18 13:16:59;;;;;;;;;;;;;;;;;;5035525;28;19909;-14
2023/05/18 13:19:26;;;;;;;;;;;;;;;;;;5035551;28;19920;-13
2023/05/18 13:21:51;;;;;;;;;;;;;;;;;;5035767;28;19955;-14
2023/05/18 13:24:17;;;;;;;;;;;;;;;;;;5035457;28;19917;-14
2023/05/18 13:26:43;;;;;;;;;;;;;;;;;;5035617;28;19913;-13
2023/05/18 13:29:09;;;;;;;;;;;;;;;;;;5034327;28;19909;-13
2023/05/18 13:31:35;;;;;;;;;;;;;;;;;;5035515;28;20012;-13
2023/05/18 13:34:02;;;;;;;;;;;;;;;;;;5035140;28;20360;-14
2023/05/18 13:36:28;;;;;;;;;;;;;;;;;;5035476;28;19921;-13
2023/05/18 13:38:54;;;;;;;;;;;;;;;;;;5035248;28;19924;-14
2023/05/18 13:41:20;;;;;;;;;;;;;;;;;;5035218;28;19948;-14
2023/05/18 13:43:46;;;;;;;;;;;;;;;;;;5035058;28;20012;-14
2023/05/18 13:46:12;;;;;;;;;;;;;;;;;;5035012;28;19916;-12
2023/05/18 13:48:38;;;;;;;;;;;;;;;;;;5035600;28;20248;-13
2023/05/18 13:51:04;;;;;;;;;;;;;;;;;;5034007;28;19920;-14
2023/05/18 13:53:30;;;;;;;;;;;;;;;;;;5033803;28;19909;-14
2023/05/18 13:55:56;;;;;;;;;;;;;;;;;;5034857;28;20292;-13
2023/05/18 13:58:24;;;;;;;;;;;;;;;;;;5034934;28;19969;-13
2023/05/18 14:00:52;;;;;;;;;;;;;;;;;;5035185;28;20012;-13
2023/05/18 14:03:18;;;;;;;;;;;;;;;;;;5034643;28;19939;-13
2023/05/18 14:05:44;;;;;;;;;;;;;;;;;;5034816;28;20295;-14
2023/05/18 14:08:10;;;;;;;;;;;;;;;;;;5035095;28;20351;-14
2023/05/18 14:10:36;;;;;;;;;;;;;;;;;;5033755;28;20275;-13
2023/05/18 14:13:02;;;;;;;;;;;;;;;;;;5034887;28;19968;-13
2023/05/18 14:15:28;;;;;;;;;;;;;;;;;;5033666;28;19944;-13
2023/05/18 14:17:54;;;;;;;;;;;;;;;;;;5034721;28;19920;-14
2023/05/18 14:20:20;;;;;;;;;;;;;;;;;;5034641;28;19909;-13
2023/05/18 14:22:46;;;;;;;;;;;;;;;;;;5034859;28;20362;-14
2023/05/18 14:25:12;;;;;;;;;;;;;;;;;;5034564;28;20259;-13
2023/05/18 14:27:38;;;;;;;;;;;;;;;;;;5034621;28;20038;-13
2023/05/18 14:30:05;;;;;;;;;;;;;;;;;;5035374;28;19932;-14
2023/05/18 14:32:31;;;;;;;;;;;;;;;;;;5034552;28;20336;-15
2023/05/18 14:34:57;;;;;;;;;;;;;;;;;;5033523;28;19924;-13
2023/05/18 14:37:23;;;;;;;;;;;;;;;;;;5034558;28;19917;-13
2023/05/18 14:39:49;;;;;;;;;;;;;;;;;;5034501;28;19920;-15
2023/05/18 14:42:15;;;;;;;;;;;;;;;;;;5034598;28;20374;-13
2023/05/18 14:44:41;;;;;;;;;;;;;;;;;;5034448;28;19917;-13
2023/05/18 14:47:07;;;;;;;;;;;;;;;;;;5034396;28;20259;-14
2023/05/18 14:49:33;;;;;;;;;;;;;;;;;;5034703;28;19916;-14
2023/05/18 14:51:59;;;;;;;;;;;;;;;;;;5034268;28;19964;-13
2023/05/18 14:54:25;;;;;;;;;;;;;;;;;;5034626;28;19917;-14
2023/05/18 14:56:51;;;;;;;;;;;;;;;;;;5034507;28;19939;-14
2023/05/18 14:59:17;;;;;;;;;;;;;;;;;;5034351;28;19911;-14
2023/05/18 15:01:43;;;;;;;;;;;;;;;;;;5034283;28;19917;-13
2023/05/18 15:04:09;;;;;;;;;;;;;;;;;;5034175;28;19960;-13
2023/05/18 15:06:36;;;;;;;;;;;;;;;;;;5037539;28;19928;-14
2023/05/18 15:09:02;;;;;;;;;;;;;;;;;;5038489;28;20291;-13
2023/05/18 15:11:28;;;;;;;;;;;;;;;;;;5037955;28;19920;-15
2023/05/18 15:13:54;;;;;;;;;;;;;;;;;;5037855;28;19913;-14
2023/05/18 15:16:20;;;;;;;;;;;;;;;;;;5037806;28;19913;-14
2023/05/18 15:18:46;;;;;;;;;;;;;;;;;;5038384;28;20343;-13
2023/05/18 15:21:12;;;;;;;;;;;;;;;;;;5038277;28;19970;-14
2023/05/18 15:23:38;;;;;;;;;;;;;;;;;;5037653;28;19909;-14
2023/05/18 15:26:04;;;;;;;;;;;;;;;;;;5038195;28;20295;-14
2023/05/18 15:28:29;;;;;;;;;;;;;;;;;;5037626;28;19910;-13
2023/05/18 15:30:55;;;;;;;;;;;;;;;;;;5037556;28;19909;-14
2023/05/18 15:33:21;;;;;;;;;;;;;;;;;;5037321;28;19971;-14
2023/05/18 15:35:47;;;;;;;;;;;;;;;;;;5037371;28;19956;-13
2023/05/18 15:38:13;;;;;;;;;;;;;;;;;;5036439;28;19910;-13
2023/05/18 15:40:42;;;;;;;;;;;;;;;;;;5037669;28;19909;-14
2023/05/18 15:43:08;;;;;;;;;;;;;;;;;;5037277;28;20336;-14
2023/05/18 15:45:34;;;;;;;;;;;;;;;;;;5037284;28;19913;-14
2023/05/18 15:48:00;;;;;;;;;;;;;;;;;;5037279;28;19909;-13
2023/05/18 15:50:26;;;;;;;;;;;;;;;;;;5037402;28;19916;-14
2023/05/18 15:52:52;;;;;;;;;;;;;;;;;;5037121;28;19936;-14
2023/05/18 15:55:18;;;;;;;;;;;;;;;;;;5037231;28;19913;-13
2023/05/18 15:57:44;;;;;;;;;;;;;;;;;;5037089;28;19913;-14
2023/05/18 16:00:10;;;;;;;;;;;;;;;;;;5036984;28;19959;-14
2023/05/18 16:02:35;;;;;;;;;;;;;;;;;;5036679;28;19917;-14
2023/05/18 16:05:01;;;;;;;;;;;;;;;;;;5037197;28;20003;-13
2023/05/18 16:07:27;;;;;;;;;;;;;;;;;;5035900;28;19909;-13
2023/05/18 16:09:53;;;;;;;;;;;;;;;;;;5036810;28;19962;-14
2023/05/18 16:12:19;;;;;;;;;;;;;;;;;;5036707;28;20024;-13
2023/05/18 16:14:45;;;;;;;;;;;;;;;;;;5036972;28;19963;-13
2023/05/18 16:17:11;;;;;;;;;;;;;;;;;;5036948;28;19909;-13
2023/05/18 16:19:37;;;;;;;;;;;;;;;;;;5036706;28;19959;-14
2023/05/18 16:22:03;;;;;;;;;;;;;;;;;;5036593;28;20229;-13
2023/05/18 16:24:29;;;;;;;;;;;;;;;;;;5036507;28;19975;-14
2023/05/18 16:26:55;;;;;;;;;;;;;;;;;;5036496;28;19919;-14
2023/05/18 16:29:21;;;;;;;;;;;;;;;;;;5036732;28;19909;-14
2023/05/18 16:31:47;;;;;;;;;;;;;;;;;;5036392;28;19959;-13
2023/05/18 16:34:13;;;;;;;;;;;;;;;;;;5036606;28;20008;-14
2023/05/18 16:36:39;;;;;;;;;;;;;;;;;;5036289;28;19963;-12
2023/05/18 16:39:06;;;;;;;;;;;;;;;;;;5036522;28;19909;-14
2023/05/18 16:41:32;;;;;;;;;;;;;;;;;;5036495;28;19909;-14